createdAt,value
2017-05-15T00:00:30.941Z,1020.28
2017-05-15T00:01:11.489Z,1020.31
2017-05-15T00:01:52.051Z,1020.3
2017-05-15T00:02:32.626Z,1020.28
2017-05-15T00:03:13.207Z,1020.29
2017-05-15T00:03:53.777Z,1020.31
2017-05-15T00:04:34.348Z,1020.34
2017-05-15T00:05:14.973Z,1020.34
2017-05-15T00:05:55.550Z,1020.34
2017-05-15T00:06:36.124Z,1020.34
2017-05-15T00:07:16.704Z,1020.32
2017-05-15T00:07:57.281Z,1020.34
2017-05-15T00:08:37.859Z,1020.38
2017-05-15T00:09:18.515Z,1020.35
2017-05-15T00:09:59.106Z,1020.33
2017-05-15T00:10:39.684Z,1020.36
2017-05-15T00:11:20.267Z,1020.36
2017-05-15T00:12:00.868Z,1020.39
2017-05-15T00:12:41.442Z,1020.37
2017-05-15T00:13:22.060Z,1020.39
2017-05-15T00:14:02.636Z,1020.38
2017-05-15T00:14:43.288Z,1020.36
2017-05-15T00:15:23.848Z,1020.36
2017-05-15T00:16:04.437Z,1020.34
2017-05-15T00:16:45.041Z,1020.34
2017-05-15T00:17:25.609Z,1020.3
2017-05-15T00:18:06.199Z,1020.31
2017-05-15T00:18:46.797Z,1020.33
2017-05-15T00:19:27.363Z,1020.29
2017-05-15T00:20:07.952Z,1020.29
2017-05-15T00:20:48.539Z,1020.3
2017-05-15T00:21:29.145Z,1020.32
2017-05-15T00:22:09.734Z,1020.32
2017-05-15T00:22:50.307Z,1020.28
2017-05-15T00:23:30.871Z,1020.3
2017-05-15T00:24:11.451Z,1020.25
2017-05-15T00:24:52.035Z,1020.3
2017-05-15T00:25:32.616Z,1020.3
2017-05-15T00:26:13.217Z,1020.31
2017-05-15T00:26:53.787Z,1020.31
2017-05-15T00:27:34.357Z,1020.3
2017-05-15T00:28:14.938Z,1020.33
2017-05-15T00:28:55.506Z,1020.33
2017-05-15T00:29:36.097Z,1020.37
2017-05-15T00:30:16.670Z,1020.35
2017-05-15T00:30:57.264Z,1020.38
2017-05-15T00:31:37.820Z,1020.38
2017-05-15T00:32:18.435Z,1020.36
2017-05-15T00:32:58.998Z,1020.41
2017-05-15T00:33:39.575Z,1020.45
2017-05-15T00:34:20.158Z,1020.45
2017-05-15T00:35:00.740Z,1020.42
2017-05-15T00:35:41.333Z,1020.46
2017-05-15T00:36:21.913Z,1020.42
2017-05-15T00:37:02.485Z,1020.42
2017-05-15T00:37:43.052Z,1020.44
2017-05-15T00:38:23.645Z,1020.42
2017-05-15T00:39:04.215Z,1020.42
2017-05-15T00:39:44.785Z,1020.42
2017-05-15T00:40:25.368Z,1020.44
2017-05-15T00:41:05.932Z,1020.45
2017-05-15T00:41:46.505Z,1020.45
2017-05-15T00:42:27.075Z,1020.46
2017-05-15T00:43:07.649Z,1020.47
2017-05-15T00:43:48.214Z,1020.48
2017-05-15T00:44:28.792Z,1020.46
2017-05-15T00:45:09.383Z,1020.5
2017-05-15T00:45:50.010Z,1020.5
2017-05-15T00:46:30.534Z,1020.52
2017-05-15T00:47:11.143Z,1020.52
2017-05-15T00:47:51.714Z,1020.52
2017-05-15T00:48:32.281Z,1020.55
2017-05-15T00:49:12.855Z,1020.56
2017-05-15T00:49:53.425Z,1020.54
2017-05-15T00:50:33.998Z,1020.56
2017-05-15T00:51:14.634Z,1020.54
2017-05-15T00:51:55.221Z,1020.57
2017-05-15T00:52:35.787Z,1020.52
2017-05-15T00:53:16.367Z,1020.55
2017-05-15T00:53:56.979Z,1020.56
2017-05-15T00:54:37.543Z,1020.56
2017-05-15T00:55:18.118Z,1020.56
2017-05-15T00:55:58.687Z,1020.53
2017-05-15T00:56:39.280Z,1020.54
2017-05-15T00:57:19.853Z,1020.47
2017-05-15T00:58:00.427Z,1020.52
2017-05-15T00:58:40.997Z,1020.48
2017-05-15T00:59:21.581Z,1020.48
2017-05-15T01:00:02.154Z,1020.44
2017-05-15T01:00:42.738Z,1020.46
2017-05-15T01:01:23.318Z,1020.43
2017-05-15T01:02:03.894Z,1020.45
2017-05-15T01:02:44.462Z,1020.44
2017-05-15T01:03:25.049Z,1020.48
2017-05-15T01:04:05.639Z,1020.44
2017-05-15T01:04:46.225Z,1020.45
2017-05-15T01:05:26.793Z,1020.5
2017-05-15T01:06:07.396Z,1020.48
2017-05-15T01:06:47.945Z,1020.51
2017-05-15T01:07:28.512Z,1020.53
2017-05-15T01:08:09.107Z,1020.52
2017-05-15T01:08:49.687Z,1020.54
2017-05-15T01:09:30.268Z,1020.56
2017-05-15T01:10:10.826Z,1020.57
2017-05-15T01:10:51.422Z,1020.57
2017-05-15T01:11:32.011Z,1020.56
2017-05-15T01:12:12.572Z,1020.59
2017-05-15T01:12:53.177Z,1020.61
2017-05-15T01:13:33.752Z,1020.62
2017-05-15T01:14:14.325Z,1020.64
2017-05-15T01:14:54.890Z,1020.64
2017-05-15T01:15:35.472Z,1020.64
2017-05-15T01:16:16.045Z,1020.64
2017-05-15T01:16:56.620Z,1020.64
2017-05-15T01:17:37.213Z,1020.61
2017-05-15T01:18:17.777Z,1020.63
2017-05-15T01:18:58.349Z,1020.63
2017-05-15T01:19:38.932Z,1020.64
2017-05-15T01:20:19.498Z,1020.62
2017-05-15T01:21:00.077Z,1020.63
2017-05-15T01:21:40.656Z,1020.66
2017-05-15T01:22:21.237Z,1020.62
2017-05-15T01:23:01.808Z,1020.68
2017-05-15T01:23:42.383Z,1020.65
2017-05-15T01:24:22.954Z,1020.64
2017-05-15T01:25:03.564Z,1020.65
2017-05-15T01:25:44.137Z,1020.67
2017-05-15T01:26:24.701Z,1020.68
2017-05-15T01:27:05.278Z,1020.7
2017-05-15T01:27:45.866Z,1020.72
2017-05-15T01:28:26.426Z,1020.72
2017-05-15T01:29:07.007Z,1020.74
2017-05-15T01:29:47.588Z,1020.75
2017-05-15T01:30:28.170Z,1020.72
2017-05-15T01:31:08.750Z,1020.74
2017-05-15T01:31:49.333Z,1020.8
2017-05-15T01:32:29.911Z,1020.8
2017-05-15T01:33:10.498Z,1020.8
2017-05-15T01:33:51.119Z,1020.8
2017-05-15T01:34:31.723Z,1020.81
2017-05-15T01:35:12.304Z,1020.81
2017-05-15T01:35:52.875Z,1020.79
2017-05-15T01:36:33.629Z,1020.85
2017-05-15T01:37:14.196Z,1020.83
2017-05-15T01:37:54.773Z,1020.87
2017-05-15T01:38:35.390Z,1020.86
2017-05-15T01:39:15.983Z,1020.91
2017-05-15T01:39:56.560Z,1020.92
2017-05-15T01:40:37.144Z,1020.95
2017-05-15T01:41:17.734Z,1020.97
2017-05-15T01:41:58.320Z,1020.99
2017-05-15T01:42:38.902Z,1020.98
2017-05-15T01:43:19.479Z,1020.95
2017-05-15T01:44:00.050Z,1021
2017-05-15T01:44:40.643Z,1021
2017-05-15T01:45:21.235Z,1021.01
2017-05-15T01:46:01.824Z,1020.98
2017-05-15T01:46:42.404Z,1021
2017-05-15T01:47:22.995Z,1021
2017-05-15T01:48:03.563Z,1021
2017-05-15T01:48:44.129Z,1020.99
2017-05-15T01:49:24.715Z,1021.01
2017-05-15T01:50:05.300Z,1020.99
2017-05-15T01:50:45.879Z,1021.01
2017-05-15T01:51:26.529Z,1020.99
2017-05-15T01:52:07.119Z,1020.98
2017-05-15T01:52:47.709Z,1020.97
2017-05-15T01:53:28.319Z,1020.97
2017-05-15T01:54:08.876Z,1020.97
2017-05-15T01:54:49.475Z,1020.97
2017-05-15T01:55:30.051Z,1020.98
2017-05-15T01:56:10.623Z,1020.97
2017-05-15T01:56:51.214Z,1021.02
2017-05-15T01:57:31.802Z,1021.02
2017-05-15T01:58:12.395Z,1021.05
2017-05-15T01:58:52.984Z,1021.05
2017-05-15T01:59:33.556Z,1021.01
2017-05-15T02:00:14.137Z,1021.04
2017-05-15T02:00:54.698Z,1021.03
2017-05-15T02:01:35.286Z,1021.02
2017-05-15T02:02:15.873Z,1021.04
2017-05-15T02:02:56.453Z,1021.06
2017-05-15T02:03:37.037Z,1021.02
2017-05-15T02:04:17.669Z,1021.04
2017-05-15T02:04:58.221Z,1021.06
2017-05-15T02:05:38.797Z,1021.07
2017-05-15T02:06:19.381Z,1021.09
2017-05-15T02:06:59.984Z,1021.11
2017-05-15T02:07:40.525Z,1021.14
2017-05-15T02:08:21.094Z,1021.12
2017-05-15T02:09:01.667Z,1021.18
2017-05-15T02:09:42.245Z,1021.19
2017-05-15T02:10:22.814Z,1021.19
2017-05-15T02:11:03.416Z,1021.21
2017-05-15T02:11:43.993Z,1021.24
2017-05-15T02:12:24.569Z,1021.22
2017-05-15T02:13:05.166Z,1021.26
2017-05-15T02:13:45.742Z,1021.25
2017-05-15T02:14:26.315Z,1021.24
2017-05-15T02:15:06.886Z,1021.27
2017-05-15T02:15:47.461Z,1021.25
2017-05-15T02:16:28.028Z,1021.25
2017-05-15T02:17:08.598Z,1021.29
2017-05-15T02:17:49.177Z,1021.27
2017-05-15T02:18:29.747Z,1021.28
2017-05-15T02:19:10.335Z,1021.28
2017-05-15T02:19:50.914Z,1021.28
2017-05-15T02:20:31.496Z,1021.27
2017-05-15T02:21:12.070Z,1021.25
2017-05-15T02:21:52.651Z,1021.27
2017-05-15T02:22:33.220Z,1021.29
2017-05-15T02:23:13.795Z,1021.24
2017-05-15T02:23:54.379Z,1021.3
2017-05-15T02:24:34.949Z,1021.3
2017-05-15T02:25:15.525Z,1021.3
2017-05-15T02:25:56.111Z,1021.29
2017-05-15T02:26:36.680Z,1021.32
2017-05-15T02:27:17.247Z,1021.33
2017-05-15T02:27:57.826Z,1021.37
2017-05-15T02:28:38.406Z,1021.33
2017-05-15T02:29:18.977Z,1021.38
2017-05-15T02:29:59.548Z,1021.37
2017-05-15T02:30:40.122Z,1021.35
2017-05-15T02:31:20.706Z,1021.36
2017-05-15T02:32:01.298Z,1021.34
2017-05-15T02:32:41.865Z,1021.35
2017-05-15T02:33:22.434Z,1021.35
2017-05-15T02:34:03.014Z,1021.35
2017-05-15T02:34:43.608Z,1021.35
2017-05-15T02:35:24.192Z,1021.37
2017-05-15T02:36:04.759Z,1021.34
2017-05-15T02:36:45.336Z,1021.35
2017-05-15T02:37:25.911Z,1021.37
2017-05-15T02:38:06.496Z,1021.33
2017-05-15T02:38:47.063Z,1021.37
2017-05-15T02:39:27.629Z,1021.37
2017-05-15T02:40:08.195Z,1021.38
2017-05-15T02:40:48.777Z,1021.37
2017-05-15T02:41:29.355Z,1021.33
2017-05-15T02:42:09.922Z,1021.33
2017-05-15T02:42:50.555Z,1021.4
2017-05-15T02:43:31.143Z,1021.36
2017-05-15T02:44:11.728Z,1021.33
2017-05-15T02:44:52.319Z,1021.37
2017-05-15T02:45:32.893Z,1021.42
2017-05-15T02:46:13.483Z,1021.37
2017-05-15T02:46:54.052Z,1021.4
2017-05-15T02:47:34.637Z,1021.4
2017-05-15T02:48:15.210Z,1021.39
2017-05-15T02:48:55.791Z,1021.41
2017-05-15T02:49:36.411Z,1021.43
2017-05-15T02:50:17.007Z,1021.44
2017-05-15T02:50:57.576Z,1021.43
2017-05-15T02:51:38.212Z,1021.45
2017-05-15T02:52:18.744Z,1021.44
2017-05-15T02:52:59.318Z,1021.46
2017-05-15T02:53:39.921Z,1021.43
2017-05-15T02:54:20.519Z,1021.43
2017-05-15T02:55:01.066Z,1021.42
2017-05-15T02:55:41.638Z,1021.43
2017-05-15T02:56:22.225Z,1021.36
2017-05-15T02:57:02.812Z,1021.4
2017-05-15T02:57:43.410Z,1021.41
2017-05-15T02:58:23.982Z,1021.42
2017-05-15T02:59:04.563Z,1021.42
2017-05-15T02:59:45.131Z,1021.43
2017-05-15T03:00:25.725Z,1021.42
2017-05-15T03:01:06.340Z,1021.38
2017-05-15T03:01:46.914Z,1021.43
2017-05-15T03:02:27.487Z,1021.43
2017-05-15T03:03:08.075Z,1021.46
2017-05-15T03:03:48.646Z,1021.49
2017-05-15T03:04:29.229Z,1021.46
2017-05-15T03:05:09.826Z,1021.46
2017-05-15T03:05:50.400Z,1021.51
2017-05-15T03:06:30.996Z,1021.5
2017-05-15T03:07:11.602Z,1021.47
2017-05-15T03:07:52.202Z,1021.46
2017-05-15T03:08:32.814Z,1021.52
2017-05-15T03:09:13.753Z,1021.5
2017-05-15T03:09:54.367Z,1021.51
2017-05-15T03:10:34.955Z,1021.51
2017-05-15T03:11:15.548Z,1021.52
2017-05-15T03:11:56.117Z,1021.51
2017-05-15T03:12:36.683Z,1021.49
2017-05-15T03:13:17.268Z,1021.55
2017-05-15T03:13:57.845Z,1021.56
2017-05-15T03:14:38.424Z,1021.54
2017-05-15T03:15:19.016Z,1021.57
2017-05-15T03:15:59.622Z,1021.59
2017-05-15T03:16:40.192Z,1021.57
2017-05-15T03:17:20.765Z,1021.61
2017-05-15T03:18:01.334Z,1021.59
2017-05-15T03:18:41.951Z,1021.58
2017-05-15T03:19:22.524Z,1021.57
2017-05-15T03:20:03.088Z,1021.56
2017-05-15T03:20:43.669Z,1021.55
2017-05-15T03:21:24.238Z,1021.56
2017-05-15T03:22:04.847Z,1021.53
2017-05-15T03:22:45.392Z,1021.59
2017-05-15T03:23:25.972Z,1021.56
2017-05-15T03:24:06.618Z,1021.55
2017-05-15T03:24:47.195Z,1021.57
2017-05-15T03:25:27.793Z,1021.56
2017-05-15T03:26:08.373Z,1021.55
2017-05-15T03:26:48.947Z,1021.57
2017-05-15T03:27:29.526Z,1021.58
2017-05-15T03:28:10.105Z,1021.6
2017-05-15T03:28:50.699Z,1021.59
2017-05-15T03:29:31.273Z,1021.58
2017-05-15T03:30:11.854Z,1021.63
2017-05-15T03:30:52.455Z,1021.56
2017-05-15T03:31:33.028Z,1021.58
2017-05-15T03:32:13.624Z,1021.6
2017-05-15T03:32:54.250Z,1021.6
2017-05-15T03:33:34.859Z,1021.62
2017-05-15T03:34:15.431Z,1021.63
2017-05-15T03:34:56.015Z,1021.63
2017-05-15T03:35:36.677Z,1021.61
2017-05-15T03:36:17.268Z,1021.59
2017-05-15T03:36:57.848Z,1021.59
2017-05-15T03:37:38.439Z,1021.57
2017-05-15T03:38:19.031Z,1021.61
2017-05-15T03:38:59.607Z,1021.6
2017-05-15T03:39:40.184Z,1021.56
2017-05-15T03:40:20.759Z,1021.57
2017-05-15T03:41:01.333Z,1021.62
2017-05-15T03:41:41.899Z,1021.65
2017-05-15T03:42:22.488Z,1021.61
2017-05-15T03:43:03.074Z,1021.64
2017-05-15T03:43:43.690Z,1021.61
2017-05-15T03:44:24.276Z,1021.68
2017-05-15T03:45:04.862Z,1021.68
2017-05-15T03:45:45.442Z,1021.67
2017-05-15T03:46:26.063Z,1021.7
2017-05-15T03:47:06.657Z,1021.68
2017-05-15T03:47:47.268Z,1021.69
2017-05-15T03:48:27.858Z,1021.7
2017-05-15T03:49:08.454Z,1021.74
2017-05-15T03:49:49.016Z,1021.74
2017-05-15T03:50:29.589Z,1021.74
2017-05-15T03:51:10.160Z,1021.76
2017-05-15T03:51:50.795Z,1021.77
2017-05-15T03:52:31.325Z,1021.79
2017-05-15T03:53:11.911Z,1021.78
2017-05-15T03:53:52.531Z,1021.79
2017-05-15T03:54:33.118Z,1021.8
2017-05-15T03:55:13.731Z,1021.81
2017-05-15T03:55:54.321Z,1021.77
2017-05-15T03:56:34.909Z,1021.78
2017-05-15T03:57:15.485Z,1021.78
2017-05-15T03:57:56.081Z,1021.81
2017-05-15T03:58:36.677Z,1021.84
2017-05-15T03:59:17.251Z,1021.81
2017-05-15T03:59:57.872Z,1021.84
2017-05-15T04:00:38.433Z,1021.86
2017-05-15T04:01:19.038Z,1021.88
2017-05-15T04:01:59.647Z,1021.88
2017-05-15T04:02:40.230Z,1021.86
2017-05-15T04:03:20.825Z,1021.88
2017-05-15T04:04:01.406Z,1021.89
2017-05-15T04:04:42.029Z,1021.9
2017-05-15T04:05:22.611Z,1021.94
2017-05-15T04:06:03.201Z,1021.95
2017-05-15T04:06:43.791Z,1021.99
2017-05-15T04:07:24.367Z,1022
2017-05-15T04:08:04.968Z,1022.01
2017-05-15T04:08:45.591Z,1022
2017-05-15T04:09:26.156Z,1021.99
2017-05-15T04:10:06.739Z,1022.03
2017-05-15T04:10:47.315Z,1022.01
2017-05-15T04:11:27.921Z,1022.05
2017-05-15T04:12:08.508Z,1022.04
2017-05-15T04:12:49.087Z,1022.04
2017-05-15T04:13:29.669Z,1022.02
2017-05-15T04:14:10.256Z,1022.07
2017-05-15T04:14:50.845Z,1022.03
2017-05-15T04:15:31.417Z,1022.07
2017-05-15T04:16:11.982Z,1022.06
2017-05-15T04:16:52.563Z,1022.06
2017-05-15T04:17:33.141Z,1022.07
2017-05-15T04:18:13.742Z,1022.07
2017-05-15T04:18:54.320Z,1022.09
2017-05-15T04:19:34.895Z,1022.06
2017-05-15T04:20:15.460Z,1022.06
2017-05-15T04:20:56.030Z,1022.03
2017-05-15T04:21:36.653Z,1022.07
2017-05-15T04:22:17.241Z,1022.03
2017-05-15T04:22:57.822Z,1022.04
2017-05-15T04:23:38.393Z,1022.07
2017-05-15T04:24:18.974Z,1022.02
2017-05-15T04:24:59.560Z,1022.08
2017-05-15T04:25:40.164Z,1022.05
2017-05-15T04:26:20.783Z,1022.04
2017-05-15T04:27:01.370Z,1022.06
2017-05-15T04:27:41.947Z,1022.05
2017-05-15T04:28:22.534Z,1022.09
2017-05-15T04:29:03.105Z,1022.06
2017-05-15T04:29:43.678Z,1022.08
2017-05-15T04:30:24.262Z,1022.11
2017-05-15T04:31:04.834Z,1022.1
2017-05-15T04:31:45.416Z,1022.13
2017-05-15T04:32:26.143Z,1022.12
2017-05-15T04:33:06.724Z,1022.15
2017-05-15T04:33:47.291Z,1022.15
2017-05-15T04:34:27.884Z,1022.14
2017-05-15T04:35:08.453Z,1022.15
2017-05-15T04:35:49.059Z,1022.15
2017-05-15T04:36:29.626Z,1022.16
2017-05-15T04:37:10.239Z,1022.16
2017-05-15T04:37:50.810Z,1022.16
2017-05-15T04:38:31.387Z,1022.19
2017-05-15T04:39:11.969Z,1022.19
2017-05-15T04:39:52.559Z,1022.2
2017-05-15T04:40:33.133Z,1022.2
2017-05-15T04:41:13.724Z,1022.2
2017-05-15T04:41:54.320Z,1022.21
2017-05-15T04:42:34.906Z,1022.22
2017-05-15T04:43:15.588Z,1022.21
2017-05-15T04:43:56.137Z,1022.22
2017-05-15T04:44:36.707Z,1022.22
2017-05-15T04:45:17.280Z,1022.28
2017-05-15T04:46:01.138Z,1022.28
2017-05-15T04:46:41.751Z,1022.29
2017-05-15T04:47:22.307Z,1022.29
2017-05-15T04:48:02.901Z,1022.26
2017-05-15T04:48:43.504Z,1022.28
2017-05-15T04:49:24.086Z,1022.28
2017-05-15T04:50:04.647Z,1022.27
2017-05-15T04:50:45.233Z,1022.26
2017-05-15T04:51:25.859Z,1022.3
2017-05-15T04:52:06.469Z,1022.23
2017-05-15T04:52:47.050Z,1022.21
2017-05-15T04:53:27.671Z,1022.22
2017-05-15T04:54:08.260Z,1022.21
2017-05-15T04:54:48.855Z,1022.2
2017-05-15T04:55:29.422Z,1022.16
2017-05-15T04:56:10.006Z,1022.23
2017-05-15T04:56:50.623Z,1022.23
2017-05-15T04:57:31.222Z,1022.25
2017-05-15T04:58:11.804Z,1022.23
2017-05-15T04:58:52.384Z,1022.24
2017-05-15T04:59:32.966Z,1022.23
2017-05-15T05:00:13.574Z,1022.29
2017-05-15T05:00:54.146Z,1022.28
2017-05-15T05:01:34.727Z,1022.31
2017-05-15T05:02:15.341Z,1022.3
2017-05-15T05:02:55.932Z,1022.35
2017-05-15T05:03:36.542Z,1022.34
2017-05-15T05:04:17.243Z,1022.35
2017-05-15T05:04:57.854Z,1022.38
2017-05-15T05:05:38.431Z,1022.38
2017-05-15T05:06:19.057Z,1022.37
2017-05-15T05:06:59.617Z,1022.4
2017-05-15T05:07:40.184Z,1022.38
2017-05-15T05:08:20.753Z,1022.41
2017-05-15T05:09:01.323Z,1022.45
2017-05-15T05:09:41.897Z,1022.44
2017-05-15T05:10:22.465Z,1022.45
2017-05-15T05:11:03.049Z,1022.47
2017-05-15T05:11:43.682Z,1022.49
2017-05-15T05:12:24.220Z,1022.5
2017-05-15T05:13:04.806Z,1022.5
2017-05-15T05:13:45.417Z,1022.51
2017-05-15T05:14:26.015Z,1022.55
2017-05-15T05:15:06.607Z,1022.6
2017-05-15T05:15:47.181Z,1022.53
2017-05-15T05:16:27.769Z,1022.56
2017-05-15T05:17:08.364Z,1022.57
2017-05-15T05:17:48.945Z,1022.56
2017-05-15T05:18:29.514Z,1022.59
2017-05-15T05:19:10.149Z,1022.56
2017-05-15T05:19:50.725Z,1022.58
2017-05-15T05:20:31.353Z,1022.57
2017-05-15T05:21:12.020Z,1022.59
2017-05-15T05:21:52.610Z,1022.58
2017-05-15T05:22:33.237Z,1022.61
2017-05-15T05:23:13.872Z,1022.6
2017-05-15T05:23:54.714Z,1022.64
2017-05-15T05:24:35.405Z,1022.66
2017-05-15T05:25:16.060Z,1022.72
2017-05-15T05:25:56.635Z,1022.7
2017-05-15T05:26:37.209Z,1022.73
2017-05-15T05:27:17.790Z,1022.71
2017-05-15T05:27:58.372Z,1022.76
2017-05-15T05:28:38.963Z,1022.76
2017-05-15T05:29:19.550Z,1022.75
2017-05-15T05:30:00.147Z,1022.76
2017-05-15T05:30:40.725Z,1022.78
2017-05-15T05:31:21.302Z,1022.79
2017-05-15T05:32:01.878Z,1022.77
2017-05-15T05:32:42.480Z,1022.72
2017-05-15T05:33:23.079Z,1022.73
2017-05-15T05:34:03.663Z,1022.75
2017-05-15T05:34:44.238Z,1022.77
2017-05-15T05:35:24.825Z,1022.76
2017-05-15T05:36:05.431Z,1022.75
2017-05-15T05:36:46.006Z,1022.76
2017-05-15T05:37:26.587Z,1022.79
2017-05-15T05:38:07.160Z,1022.79
2017-05-15T05:38:47.743Z,1022.78
2017-05-15T05:39:28.336Z,1022.78
2017-05-15T05:40:08.917Z,1022.79
2017-05-15T05:40:49.500Z,1022.82
2017-05-15T05:41:30.098Z,1022.8
2017-05-15T05:42:10.682Z,1022.84
2017-05-15T05:42:51.265Z,1022.82
2017-05-15T05:43:31.840Z,1022.83
2017-05-15T05:44:12.426Z,1022.85
2017-05-15T05:44:53.001Z,1022.85
2017-05-15T05:45:33.575Z,1022.87
2017-05-15T05:46:14.154Z,1022.87
2017-05-15T05:46:54.756Z,1022.88
2017-05-15T05:47:35.334Z,1022.87
2017-05-15T05:48:15.907Z,1022.88
2017-05-15T05:48:56.487Z,1022.9
2017-05-15T05:49:37.075Z,1022.92
2017-05-15T05:50:17.665Z,1022.89
2017-05-15T05:50:58.244Z,1022.91
2017-05-15T05:51:38.830Z,1022.97
2017-05-15T05:52:19.419Z,1022.93
2017-05-15T05:53:00.002Z,1022.93
2017-05-15T05:53:40.601Z,1022.95
2017-05-15T05:54:21.475Z,1022.93
2017-05-15T05:55:02.130Z,1022.94
2017-05-15T05:55:42.714Z,1023.01
2017-05-15T05:56:23.353Z,1023
2017-05-15T05:57:03.938Z,1023
2017-05-15T05:57:44.513Z,1023.08
2017-05-15T05:58:25.093Z,1023.04
2017-05-15T05:59:05.677Z,1023.11
2017-05-15T05:59:46.258Z,1023.1
2017-05-15T06:00:26.848Z,1023.14
2017-05-15T06:01:07.436Z,1023.14
2017-05-15T06:01:48.010Z,1023.1
2017-05-15T06:02:28.605Z,1023.11
2017-05-15T06:03:09.180Z,1023.15
2017-05-15T06:03:49.764Z,1023.14
2017-05-15T06:04:30.333Z,1023.17
2017-05-15T06:05:10.937Z,1023.15
2017-05-15T06:05:51.524Z,1023.18
2017-05-15T06:06:32.088Z,1023.19
2017-05-15T06:07:12.666Z,1023.17
2017-05-15T06:07:53.237Z,1023.2
2017-05-15T06:08:33.826Z,1023.21
2017-05-15T06:09:14.392Z,1023.24
2017-05-15T06:09:54.968Z,1023.23
2017-05-15T06:10:35.538Z,1023.24
2017-05-15T06:11:16.108Z,1023.21
2017-05-15T06:11:56.681Z,1023.19
2017-05-15T06:12:37.254Z,1023.18
2017-05-15T06:13:17.826Z,1023.15
2017-05-15T06:13:58.403Z,1023.19
2017-05-15T06:14:38.996Z,1023.17
2017-05-15T06:15:19.575Z,1023.14
2017-05-15T06:16:00.148Z,1023.16
2017-05-15T06:16:40.747Z,1023.16
2017-05-15T06:17:21.333Z,1023.17
2017-05-15T06:18:01.908Z,1023.18
2017-05-15T06:18:42.496Z,1023.18
2017-05-15T06:19:23.071Z,1023.16
2017-05-15T06:20:03.637Z,1023.18
2017-05-15T06:20:44.210Z,1023.18
2017-05-15T06:21:24.798Z,1023.13
2017-05-15T06:22:05.363Z,1023.15
2017-05-15T06:22:45.946Z,1023.14
2017-05-15T06:23:26.521Z,1023.16
2017-05-15T06:24:07.099Z,1023.12
2017-05-15T06:24:47.675Z,1023.16
2017-05-15T06:25:28.251Z,1023.13
2017-05-15T06:26:08.825Z,1023.19
2017-05-15T06:26:51.217Z,1023.18
2017-05-15T06:27:31.790Z,1023.17
2017-05-15T06:28:12.364Z,1023.16
2017-05-15T06:28:53.011Z,1023.18
2017-05-15T06:29:33.583Z,1023.18
2017-05-15T06:30:14.153Z,1023.18
2017-05-15T06:30:54.726Z,1023.17
2017-05-15T06:31:35.292Z,1023.18
2017-05-15T06:32:15.875Z,1023.16
2017-05-15T06:32:56.459Z,1023.17
2017-05-15T06:33:37.043Z,1023.18
2017-05-15T06:34:17.624Z,1023.2
2017-05-15T06:34:58.293Z,1023.2
2017-05-15T06:35:38.885Z,1023.23
2017-05-15T06:36:19.479Z,1023.22
2017-05-15T06:37:00.083Z,1023.19
2017-05-15T06:37:40.636Z,1023.17
2017-05-15T06:38:21.215Z,1023.14
2017-05-15T06:39:01.797Z,1023.18
2017-05-15T06:39:42.386Z,1023.16
2017-05-15T06:40:22.964Z,1023.17
2017-05-15T06:41:04.440Z,1023.13
2017-05-15T06:41:45.016Z,1023.18
2017-05-15T06:42:25.621Z,1023.2
2017-05-15T06:43:06.210Z,1023.19
2017-05-15T06:43:46.782Z,1023.18
2017-05-15T06:44:27.351Z,1023.23
2017-05-15T06:45:07.930Z,1023.22
2017-05-15T06:45:48.518Z,1023.26
2017-05-15T06:46:29.090Z,1023.25
2017-05-15T06:47:09.677Z,1023.23
2017-05-15T06:47:50.273Z,1023.27
2017-05-15T06:48:30.831Z,1023.27
2017-05-15T06:49:11.404Z,1023.28
2017-05-15T06:49:51.981Z,1023.3
2017-05-15T06:50:32.570Z,1023.27
2017-05-15T06:51:13.139Z,1023.31
2017-05-15T06:51:53.711Z,1023.32
2017-05-15T06:52:34.301Z,1023.28
2017-05-15T06:53:14.874Z,1023.3
2017-05-15T06:53:55.446Z,1023.29
2017-05-15T06:54:36.035Z,1023.33
2017-05-15T06:55:16.624Z,1023.29
2017-05-15T06:55:57.203Z,1023.21
2017-05-15T06:56:37.825Z,1023.23
2017-05-15T06:57:18.403Z,1023.26
2017-05-15T06:57:58.983Z,1023.23
2017-05-15T06:58:39.586Z,1023.22
2017-05-15T06:59:20.162Z,1023.23
2017-05-15T07:00:00.755Z,1023.25
2017-05-15T07:00:41.343Z,1023.26
2017-05-15T07:01:21.928Z,1023.27
2017-05-15T07:02:02.511Z,1023.29
2017-05-15T07:02:43.100Z,1023.3
2017-05-15T07:03:23.680Z,1023.27
2017-05-15T07:04:04.258Z,1023.28
2017-05-15T07:04:44.867Z,1023.29
2017-05-15T07:05:25.413Z,1023.3
2017-05-15T07:06:05.995Z,1023.3
2017-05-15T07:06:46.582Z,1023.34
2017-05-15T07:07:27.185Z,1023.31
2017-05-15T07:08:07.770Z,1023.3
2017-05-15T07:08:48.348Z,1023.35
2017-05-15T07:09:28.942Z,1023.35
2017-05-15T07:10:09.525Z,1023.33
2017-05-15T07:10:50.116Z,1023.32
2017-05-15T07:11:30.689Z,1023.35
2017-05-15T07:12:11.259Z,1023.31
2017-05-15T07:12:51.830Z,1023.3
2017-05-15T07:13:32.401Z,1023.32
2017-05-15T07:14:12.975Z,1023.29
2017-05-15T07:14:53.551Z,1023.29
2017-05-15T07:15:34.137Z,1023.29
2017-05-15T07:16:14.721Z,1023.24
2017-05-15T07:16:55.301Z,1023.25
2017-05-15T07:17:35.908Z,1023.27
2017-05-15T07:18:16.479Z,1023.25
2017-05-15T07:18:57.080Z,1023.24
2017-05-15T07:19:37.699Z,1023.24
2017-05-15T07:20:18.271Z,1023.22
2017-05-15T07:20:58.844Z,1023.22
2017-05-15T07:21:39.408Z,1023.23
2017-05-15T07:22:20.013Z,1023.24
2017-05-15T07:23:00.604Z,1023.27
2017-05-15T07:23:41.168Z,1023.26
2017-05-15T07:24:21.745Z,1023.26
2017-05-15T07:25:02.338Z,1023.25
2017-05-15T07:25:42.917Z,1023.26
2017-05-15T07:26:23.515Z,1023.32
2017-05-15T07:27:04.121Z,1023.3
2017-05-15T07:27:44.704Z,1023.29
2017-05-15T07:28:25.281Z,1023.3
2017-05-15T07:29:05.852Z,1023.3
2017-05-15T07:29:46.427Z,1023.33
2017-05-15T07:30:27.012Z,1023.31
2017-05-15T07:31:07.592Z,1023.31
2017-05-15T07:31:48.183Z,1023.3
2017-05-15T07:32:28.767Z,1023.3
2017-05-15T07:33:09.350Z,1023.3
2017-05-15T07:33:49.935Z,1023.29
2017-05-15T07:34:30.516Z,1023.27
2017-05-15T07:35:11.097Z,1023.28
2017-05-15T07:35:51.660Z,1023.28
2017-05-15T07:36:32.246Z,1023.32
2017-05-15T07:37:12.827Z,1023.32
2017-05-15T07:37:53.446Z,1023.34
2017-05-15T07:38:34.020Z,1023.34
2017-05-15T07:39:14.651Z,1023.35
2017-05-15T07:39:55.219Z,1023.31
2017-05-15T07:40:35.805Z,1023.3
2017-05-15T07:41:16.412Z,1023.4
2017-05-15T07:41:56.990Z,1023.38
2017-05-15T07:42:37.567Z,1023.33
2017-05-15T07:43:18.151Z,1023.36
2017-05-15T07:43:58.721Z,1023.35
2017-05-15T07:44:39.320Z,1023.34
2017-05-15T07:45:19.901Z,1023.37
2017-05-15T07:46:00.522Z,1023.37
2017-05-15T07:46:41.115Z,1023.38
2017-05-15T07:47:21.679Z,1023.37
2017-05-15T07:48:02.253Z,1023.42
2017-05-15T07:48:42.831Z,1023.38
2017-05-15T07:49:23.427Z,1023.38
2017-05-15T07:50:03.998Z,1023.39
2017-05-15T07:50:44.597Z,1023.42
2017-05-15T07:51:25.181Z,1023.39
2017-05-15T07:52:05.791Z,1023.38
2017-05-15T07:52:46.378Z,1023.39
2017-05-15T07:53:26.950Z,1023.4
2017-05-15T07:54:07.518Z,1023.4
2017-05-15T07:54:48.106Z,1023.4
2017-05-15T07:55:28.701Z,1023.42
2017-05-15T07:56:09.298Z,1023.42
2017-05-15T07:56:49.870Z,1023.43
2017-05-15T07:57:30.453Z,1023.46
2017-05-15T07:58:11.027Z,1023.42
2017-05-15T07:58:51.622Z,1023.46
2017-05-15T07:59:32.220Z,1023.47
2017-05-15T08:00:12.821Z,1023.49
2017-05-15T08:00:53.403Z,1023.52
2017-05-15T08:01:33.985Z,1023.53
2017-05-15T08:02:14.561Z,1023.51
2017-05-15T08:02:55.150Z,1023.52
2017-05-15T08:03:35.741Z,1023.54
2017-05-15T08:04:16.315Z,1023.56
2017-05-15T08:04:56.887Z,1023.55
2017-05-15T08:05:37.461Z,1023.52
2017-05-15T08:06:18.044Z,1023.56
2017-05-15T08:06:58.629Z,1023.59
2017-05-15T08:07:39.209Z,1023.56
2017-05-15T08:08:19.791Z,1023.52
2017-05-15T08:09:00.385Z,1023.54
2017-05-15T08:09:40.973Z,1023.53
2017-05-15T08:10:21.550Z,1023.57
2017-05-15T08:11:02.138Z,1023.55
2017-05-15T08:11:42.721Z,1023.54
2017-05-15T08:12:23.304Z,1023.53
2017-05-15T08:13:03.956Z,1023.55